»·PEaware :: N799DS KBFL-KVNY

N799DS :: KBFL-KVNY

FLIGHT INFORMATION

Flight Status: Arrived
Operator: Privately registered:
United States
More flights under this callsign
Pilot: Wolfgang B. (15069)
Aircraft: CESSNA 172 SKYHAWK
(C172)
More flights by this aircraft type
Origin: KBFL Meadows
United States
Destination: KVNY Van Nuys
United States
More flights between these airports :: More routes between these airports
Route: +MEADO4 LHS LYNXX8
File this flight plan on PilotEdge
Remarks:
Altitude:
(Current/Filed)
8,000ft
Speed:
(Current/Filed)
120kts
Departed: 24-Mar-20 02:11 PM
Arrived: 24-Mar-20 02:59 PM
Distance/Time
Traveled:
78nm/0:48
Distance/Time
To Go:
Arrived

Flight Plot

Page will automatically refresh every two minutes.

Flight plan parsing failed; only flown route is shown


Map Options




Map Legend


Flown Route
Filed Route
Departure Airport
Arrival Airport
Navaid (VOR, NDB)
Fix

Horizontal Profiles

Position Reports

Time Latitude Longitude Heading Altitude Ground
Speed
24-Mar-20 13:47 35.429367 -119.046106 226 495ft 0kts
24-Mar-20 13:48 35.429367 -119.046106 226 495ft 0kts
24-Mar-20 13:49 35.429367 -119.046106 226 495ft 0kts
24-Mar-20 13:50 35.429367 -119.046106 226 495ft 0kts
24-Mar-20 13:51 35.429367 -119.046106 226 495ft 0kts
24-Mar-20 13:52 35.429367 -119.046106 226 495ft 0kts
24-Mar-20 13:53 35.429367 -119.046106 226 495ft 0kts
24-Mar-20 13:54 35.429367 -119.046106 226 495ft 0kts
24-Mar-20 13:55 35.429367 -119.046106 226 495ft 0kts
24-Mar-20 13:56 35.429367 -119.046106 226 495ft 0kts
24-Mar-20 13:57 35.429367 -119.046106 226 495ft 0kts
24-Mar-20 13:58 35.429367 -119.046106 226 495ft 0kts
24-Mar-20 13:59 35.429351 -119.046125 225 494ft 0kts
24-Mar-20 14:00 35.429351 -119.046125 225 494ft 0kts
24-Mar-20 14:01 35.429351 -119.046125 225 494ft 0kts
24-Mar-20 14:02 35.429351 -119.046125 225 494ft 0kts
24-Mar-20 14:03 35.429351 -119.046125 225 494ft 0kts
24-Mar-20 14:04 35.429351 -119.046125 225 494ft 0kts
24-Mar-20 14:05 35.429166 -119.046363 226 493ft 8kts
24-Mar-20 14:06 35.426207 -119.044757 141 482ft 8kts
24-Mar-20 14:07 35.425774 -119.044711 204 480ft 0kts
24-Mar-20 14:08 35.425774 -119.044711 204 480ft 0kts
24-Mar-20 14:09 35.426570 -119.047428 314 478ft 27kts
24-Mar-20 14:10 35.439209 -119.063604 312 1234ft 68kts
24-Mar-20 14:11 35.452676 -119.080245 313 2104ft 69kts
24-Mar-20 14:12 35.465961 -119.097161 313 2930ft 69kts
24-Mar-20 14:13 35.479415 -119.113488 306 3717ft 67kts
24-Mar-20 14:14 35.466582 -119.120711 162 4438ft 83kts
24-Mar-20 14:15 35.445292 -119.108384 161 5139ft 85kts
24-Mar-20 14:16 35.424718 -119.094350 157 5834ft 87kts
24-Mar-20 14:17 35.403619 -119.079418 158 6497ft 87kts
24-Mar-20 14:18 35.382311 -119.064372 159 7118ft 88kts
24-Mar-20 14:19 35.361020 -119.049353 160 7736ft 88kts
24-Mar-20 14:20 35.339666 -119.034311 161 8341ft 88kts
24-Mar-20 14:21 35.318454 -119.019402 162 8909ft 87kts
24-Mar-20 14:22 35.292634 -119.001529 158 9003ft 125kts
24-Mar-20 14:23 35.261412 -118.979566 157 8999ft 130kts
24-Mar-20 14:24 35.236500 -118.961939 163 9725ft 88kts
24-Mar-20 14:25 35.214060 -118.946534 160 10006ft 108kts
24-Mar-20 14:26 35.184655 -118.925838 158 10000ft 129kts
24-Mar-20 14:27 35.153322 -118.903810 158 10023ft 130kts
24-Mar-20 14:28 35.121943 -118.881840 158 10019ft 129kts
24-Mar-20 14:29 35.090508 -118.859879 157 10014ft 130kts
24-Mar-20 14:30 35.058930 -118.837828 158 10008ft 131kts
24-Mar-20 14:31 35.027189 -118.815692 157 10002ft 131kts
24-Mar-20 14:32 34.995238 -118.793407 158 10000ft 132kts
24-Mar-20 14:33 34.963223 -118.771117 159 10000ft 132kts
24-Mar-20 14:34 34.932046 -118.749247 162 10337ft 103kts
24-Mar-20 14:35 34.909816 -118.733692 168 10871ft 90kts
24-Mar-20 14:36 34.885114 -118.716995 164 11006ft 119kts
24-Mar-20 14:37 34.854602 -118.695763 162 11011ft 130kts
24-Mar-20 14:38 34.823278 -118.673960 163 11008ft 128kts
24-Mar-20 14:39 34.792508 -118.652628 163 11006ft 126kts
24-Mar-20 14:40 34.762133 -118.631512 163 11003ft 125kts
24-Mar-20 14:41 34.731875 -118.610639 164 10999ft 124kts
24-Mar-20 14:42 34.701902 -118.589935 164 11001ft 123kts
24-Mar-20 14:43 34.671376 -118.578292 173 11006ft 119kts
24-Mar-20 14:44 34.640389 -118.556444 161 10515ft 135kts
24-Mar-20 14:45 34.606523 -118.533175 161 9938ft 143kts
24-Mar-20 14:46 34.571175 -118.510100 161 9353ft 143kts
24-Mar-20 14:47 34.535836 -118.487897 161 8756ft 143kts
24-Mar-20 14:48 34.499454 -118.475607 191 8069ft 133kts
24-Mar-20 14:49 34.462563 -118.479612 201 7381ft 132kts
24-Mar-20 14:50 34.429639 -118.496587 216 6695ft 129kts
24-Mar-20 14:51 34.395449 -118.506682 185 6033ft 113kts
24-Mar-20 14:52 34.363379 -118.504895 179 5174ft 119kts
24-Mar-20 14:53 34.333072 -118.502118 177 4098ft 100kts
24-Mar-20 14:54 34.306976 -118.499549 177 3332ft 102kts
24-Mar-20 14:55 34.279621 -118.496980 174 2506ft 101kts
24-Mar-20 14:56 34.251391 -118.494319 174 1779ft 104kts
24-Mar-20 14:57 34.223762 -118.491699 173 1080ft 94kts
24-Mar-20 14:58 34.207963 -118.490194 172 806ft 35kts
24-Mar-20 14:59 34.206575 -118.491072 268 806ft 0kts
24-Mar-20 15:00 34.207023 -118.491317 7 806ft 14kts
24-Mar-20 15:01 34.211790 -118.491728 354 806ft 18kts
24-Mar-20 15:02 34.216608 -118.492305 343 806ft 13kts
24-Mar-20 15:03 34.217330 -118.494634 359 806ft 0kts
24-Mar-20 15:05 34.217330 -118.494634 359 806ft 0kts
24-Mar-20 15:06 34.217330 -118.494634 359 806ft 0kts
24-Mar-20 15:07 34.217330 -118.494634 359 806ft 0kts
24-Mar-20 15:08 34.217330 -118.494634 359 806ft 0kts
24-Mar-20 15:09 34.217330 -118.494634 359 806ft 0kts
24-Mar-20 15:10 34.217330 -118.494634 359 806ft 0kts
24-Mar-20 15:11 34.217330 -118.494634 359 806ft 0kts
24-Mar-20 15:12 34.217330 -118.494634 359 806ft 0kts
24-Mar-20 15:13 34.217330 -118.494634 359 806ft 0kts
24-Mar-20 15:14 34.217330 -118.494634 359 806ft 0kts

Navigation Log

Ident Type
Flight plan parsing failed, navigation log unavailable